Time;durP1;ratioP1;P1;durP2;ratioP2;P2;SDS_P1;SDS_P2;PMS_P1;PMS_P2;Temp;Humidity;BMP_temperature;BMP_pressure;BME280_temperature;BME280_humidity;BME280_pressure;Samples;Min_cycle;Max_cycle;Signal;HPM_P1;HPM_P2
2023/07/20 00:02:15;;;;;;;8.00;2.50;;;;;;;16.91;100.00;100630.73;105637;1257;73844;-45
2023/07/20 00:04:43;;;;;;;4.70;2.10;;;;;;;16.84;100.00;100619.51;105709;1255;63913;-46
2023/07/20 00:07:10;;;;;;;7.10;2.30;;;;;;;16.78;100.00;100608.98;105634;1256;71647;-45
2023/07/20 00:09:38;;;;;;;5.80;2.60;;;;;;;16.72;100.00;100601.92;105605;1258;61626;-45
2023/07/20 00:12:07;;;;;;;5.00;2.20;;;;;;;16.66;100.00;100590.29;105623;1258;60374;-46
2023/07/20 00:14:34;;;;;;;8.20;2.50;;;;;;;16.62;100.00;100577.59;105684;1254;73019;-45
2023/07/20 00:17:02;;;;;;;4.60;2.30;;;;;;;16.58;100.00;100572.52;105679;1253;64467;-45
2023/07/20 00:19:32;;;;;;;5.70;2.50;;;;;;;16.54;100.00;100561.17;105669;1258;71349;-45
2023/07/20 00:21:59;;;;;;;7.90;2.60;;;;;;;16.49;100.00;100548.64;105671;1256;60563;-45
2023/07/20 00:24:27;;;;;;;8.30;2.10;;;;;;;16.45;100.00;100532.83;105699;1259;60444;-45
2023/07/20 00:26:55;;;;;;;6.30;2.10;;;;;;;16.41;100.00;100530.21;105656;1254;73837;-45
2023/07/20 00:29:22;;;;;;;4.60;2.00;;;;;;;16.35;100.00;100524.35;105697;1254;63924;-45
2023/07/20 00:31:50;;;;;;;6.00;2.30;;;;;;;16.28;100.00;100515.56;105751;1254;72582;-45
2023/07/20 00:34:18;;;;;;;13.40;2.50;;;;;;;16.21;100.00;100510.78;105660;1258;60549;-45
2023/07/20 00:36:46;;;;;;;14.10;2.40;;;;;;;16.16;100.00;100509.41;105665;1259;60579;-46
2023/07/20 00:39:13;;;;;;;15.80;2.30;;;;;;;16.13;100.00;100499.48;105649;1254;72688;-45
2023/07/20 00:41:41;;;;;;;4.10;2.30;;;;;;;16.16;100.00;100500.55;105610;1254;63721;-46
2023/07/20 00:44:09;;;;;;;4.90;2.50;;;;;;;16.17;100.00;100498.27;105628;1254;71697;-45
2023/07/20 00:46:38;;;;;;;5.70;2.60;;;;;;;16.16;100.00;100496.23;105638;1254;60678;-45
2023/07/20 00:49:06;;;;;;;12.80;2.40;;;;;;;16.14;100.00;100492.27;105670;1257;60431;-45
2023/07/20 00:51:34;;;;;;;8.70;2.30;;;;;;;16.11;100.00;100491.89;105646;1254;72603;-45
2023/07/20 00:54:02;;;;;;;11.20;2.30;;;;;;;16.07;100.00;100493.77;105689;1254;64323;-45
2023/07/20 00:56:30;;;;;;;3.60;2.50;;;;;;;16.06;100.00;100493.31;105677;1254;72651;-45
2023/07/20 00:58:58;;;;;;;8.50;2.60;;;;;;;16.05;100.00;100489.70;105667;1259;60585;-45
2023/07/20 01:01:27;;;;;;;9.10;2.70;;;;;;;16.05;100.00;100490.55;105660;1254;60443;-45
2023/07/20 01:03:55;;;;;;;10.60;2.60;;;;;;;16.05;100.00;100491.45;105662;1254;73844;-45
2023/07/20 01:06:50;;;;;;;8.50;2.30;;;;;;;16.02;100.00;100493.27;105677;1257;63993;-45
2023/07/20 01:09:19;;;;;;;9.40;2.50;;;;;;;16.01;100.00;100489.66;105675;1254;72604;-45
2023/07/20 01:12:03;;;;;;;4.40;2.80;;;;;;;16.00;100.00;100493.02;105645;1254;61696;-45
2023/07/20 01:14:32;;;;;;;8.40;2.80;;;;;;;16.00;100.00;100497.02;105736;1257;60453;-46
2023/07/20 01:17:01;;;;;;;24.00;2.60;;;;;;;16.03;100.00;100502.83;105657;1254;73164;-46
2023/07/20 01:19:28;;;;;;;9.10;2.80;;;;;;;16.07;100.00;100500.23;105666;1256;63936;-45
2023/07/20 01:22:04;;;;;;;7.30;2.50;;;;;;;16.12;100.00;100500.92;105707;1254;71137;-45
2023/07/20 01:24:53;;;;;;;14.80;2.70;;;;;;;16.13;100.00;100498.75;105701;1257;60635;-46
2023/07/20 01:27:52;;;;;;;7.20;2.60;;;;;;;16.13;100.00;100494.10;105673;1255;60421;-46
2023/07/20 01:30:39;;;;;;;5.50;2.50;;;;;;;16.11;100.00;100495.55;105689;1253;72897;-44
2023/07/20 01:33:07;;;;;;;7.90;2.40;;;;;;;16.09;100.00;100490.40;105683;1260;64225;-46
2023/07/20 01:35:35;;;;;;;6.10;2.40;;;;;;;16.08;100.00;100492.69;105592;1254;72702;-45
2023/07/20 01:38:02;;;;;;;8.90;2.20;;;;;;;16.08;100.00;100491.30;105662;1254;60715;-45
2023/07/20 01:40:31;;;;;;;6.20;2.90;;;;;;;16.09;100.00;100483.44;105681;1259;61102;-45
2023/07/20 01:42:58;;;;;;;4.10;2.50;;;;;;;16.10;100.00;100482.54;105663;1254;72574;-44
2023/07/20 01:45:26;;;;;;;7.40;2.40;;;;;;;16.09;100.00;100475.79;105680;1259;64021;-46
2023/07/20 01:47:54;;;;;;;6.50;2.70;;;;;;;16.09;100.00;100478.39;105712;1257;71395;-45
2023/07/20 01:50:22;;;;;;;8.90;2.50;;;;;;;16.07;100.00;100480.39;105644;1259;60463;-45
2023/07/20 01:52:50;;;;;;;9.40;2.40;;;;;;;16.06;100.00;100478.35;105658;1259;60396;-45
2023/07/20 01:55:18;;;;;;;7.60;2.10;;;;;;;16.04;100.00;100476.67;105696;1254;72580;-45
2023/07/20 01:57:46;;;;;;;7.50;2.60;;;;;;;16.02;100.00;100472.23;105660;1254;62984;-45
2023/07/20 02:00:15;;;;;;;8.50;2.90;;;;;;;16.00;100.00;100474.56;105656;1254;72644;-45
2023/07/20 02:02:43;;;;;;;9.40;2.40;;;;;;;15.98;100.00;100467.02;105686;1256;61650;-45
2023/07/20 02:05:11;;;;;;;6.00;2.40;;;;;;;15.94;100.00;100458.81;105689;1254;60345;-45
2023/07/20 02:07:39;;;;;;;7.90;2.40;;;;;;;15.91;100.00;100451.10;105683;1254;72994;-46
2023/07/20 02:10:08;;;;;;;5.20;2.30;;;;;;;15.87;100.00;100448.98;105695;1257;65139;-45
2023/07/20 02:12:35;;;;;;;5.90;2.60;;;;;;;15.83;100.00;100442.50;105648;1260;72609;-46
2023/07/20 02:15:05;;;;;;;11.30;2.60;;;;;;;15.79;100.00;100439.87;105647;1257;60652;-45
2023/07/20 02:17:32;;;;;;;10.80;2.90;;;;;;;15.77;100.00;100436.85;105708;1254;60360;-46
2023/07/20 02:20:01;;;;;;;4.40;2.20;;;;;;;15.74;100.00;100425.81;105627;1254;73848;-45
2023/07/20 02:22:28;;;;;;;4.80;3.00;;;;;;;15.72;100.00;100430.77;105691;1254;64002;-45
2023/07/20 02:24:56;;;;;;;6.00;2.70;;;;;;;15.70;100.00;100427.89;105654;1254;72607;-46
2023/07/20 02:27:25;;;;;;;4.90;2.20;;;;;;;15.69;100.00;100425.88;105679;1258;60724;-45
2023/07/20 02:29:53;;;;;;;8.30;2.60;;;;;;;15.70;100.00;100424.09;105748;1256;60370;-45
2023/07/20 02:32:21;;;;;;;4.50;2.40;;;;;;;15.70;100.00;100417.97;105639;1254;74018;-45
2023/07/20 02:34:49;;;;;;;8.30;2.60;;;;;;;15.72;100.00;100410.79;105654;1259;63993;-45
2023/07/20 02:37:17;;;;;;;5.70;2.40;;;;;;;15.74;100.00;100410.16;105645;1259;71450;-45
2023/07/20 02:39:44;;;;;;;7.90;2.80;;;;;;;15.78;100.00;100416.62;105708;1259;60431;-45
2023/07/20 02:42:13;;;;;;;15.40;2.90;;;;;;;15.83;100.00;100419.38;105661;1254;60390;-46
2023/07/20 02:44:41;;;;;;;6.10;2.50;;;;;;;15.89;100.00;100421.26;105690;1254;72860;-45
2023/07/20 02:47:09;;;;;;;6.50;2.90;;;;;;;15.95;100.00;100421.52;105690;1254;63874;-45
2023/07/20 02:49:37;;;;;;;8.30;2.70;;;;;;;16.03;100.00;100414.58;105659;1259;72651;-45
2023/07/20 02:52:05;;;;;;;6.60;2.70;;;;;;;16.09;100.00;100407.20;105726;1258;60825;-45
2023/07/20 02:54:33;;;;;;;3.90;2.40;;;;;;;16.15;100.00;100408.17;105669;1254;60384;-45
2023/07/20 02:57:01;;;;;;;11.30;2.50;;;;;;;16.19;100.00;100416.38;105681;1254;72970;-45
2023/07/20 02:59:29;;;;;;;4.60;2.20;;;;;;;16.22;100.00;100424.59;105720;1254;65142;-45
2023/07/20 03:01:57;;;;;;;10.20;2.30;;;;;;;16.29;100.00;100430.40;105692;1261;71416;-45
2023/07/20 03:04:28;;;;;;;15.20;3.20;;;;;;;16.38;100.00;100431.41;105629;1259;60591;-45
2023/07/20 03:06:55;;;;;;;8.80;2.70;;;;;;;16.48;100.00;100429.73;105652;1259;60536;-45
2023/07/20 03:09:24;;;;;;;8.80;2.50;;;;;;;16.59;100.00;100429.78;105648;1258;73890;-46
2023/07/20 03:11:51;;;;;;;2.90;2.60;;;;;;;16.70;100.00;100427.77;105657;1259;63930;-45
2023/07/20 03:14:19;;;;;;;4.90;2.30;;;;;;;16.79;100.00;100433.64;105659;1254;71485;-46
2023/07/20 03:16:47;;;;;;;3.50;2.10;;;;;;;16.89;100.00;100436.85;105631;1260;61636;-45
2023/07/20 03:19:15;;;;;;;5.00;2.10;;;;;;;17.01;100.00;100434.60;105654;1254;60476;-45
2023/07/20 03:21:43;;;;;;;9.60;2.50;;;;;;;17.14;100.00;100435.73;105706;1257;73855;-44
2023/07/20 03:24:11;;;;;;;9.30;2.60;;;;;;;17.29;100.00;100437.52;105661;1254;63920;-45
2023/07/20 03:26:39;;;;;;;9.50;2.80;;;;;;;17.41;100.00;100440.08;105653;1257;71025;-45
2023/07/20 03:29:08;;;;;;;9.80;3.80;;;;;;;17.52;100.00;100449.30;105614;1254;61646;-45
2023/07/20 03:31:36;;;;;;;10.40;3.40;;;;;;;17.63;100.00;100451.58;105707;1254;60559;-45
2023/07/20 03:34:05;;;;;;;9.70;2.50;;;;;;;17.74;100.00;100454.92;105655;1257;73813;-44
2023/07/20 03:36:32;;;;;;;10.50;2.70;;;;;;;17.83;100.00;100457.81;105703;1254;64004;-44
2023/07/20 03:39:00;;;;;;;5.90;2.70;;;;;;;17.89;100.00;100474.95;105644;1257;71367;-45
2023/07/20 03:41:28;;;;;;;7.20;2.80;;;;;;;17.94;100.00;100498.09;105633;1254;60598;-45
2023/07/20 03:43:56;;;;;;;6.10;3.10;;;;;;;17.99;100.00;100515.71;105655;1257;60364;-45
2023/07/20 03:46:24;;;;;;;6.80;2.70;;;;;;;18.01;100.00;100528.88;105669;1254;72659;-44
2023/07/20 03:48:52;;;;;;;5.40;2.70;;;;;;;18.02;100.00;100548.05;105721;1254;65267;-45
2023/07/20 03:51:20;;;;;;;7.70;2.50;;;;;;;18.02;100.00;100566.36;105686;1259;70443;-45
2023/07/20 03:53:48;;;;;;;10.10;3.50;;;;;;;18.04;100.00;100584.59;105668;1254;60853;-45
2023/07/20 03:56:15;;;;;;;9.40;2.60;;;;;;;18.13;100.00;100597.31;105677;1257;60375;-45
2023/07/20 03:58:43;;;;;;;5.70;2.80;;;;;;;18.30;100.00;100610.95;105633;1254;73872;-45
2023/07/20 04:01:13;;;;;;;9.80;2.90;;;;;;;18.61;100.00;100625.38;105740;1254;64003;-45
2023/07/20 04:03:41;;;;;;;10.40;2.80;;;;;;;18.99;100.00;100643.95;105693;1254;71251;-45
2023/07/20 04:06:09;;;;;;;10.50;2.90;;;;;;;19.36;100.00;100678.11;105631;1259;61013;-44
2023/07/20 04:08:37;;;;;;;9.20;2.70;;;;;;;19.72;100.00;100718.11;105708;1254;60374;-45
2023/07/20 04:11:05;;;;;;;12.60;3.00;;;;;;;20.07;100.00;100750.80;105720;1254;72542;-45
2023/07/20 04:13:35;;;;;;;10.80;3.10;;;;;;;20.38;100.00;100736.87;105665;1254;64106;-45
2023/07/20 04:16:04;;;;;;;6.20;2.90;;;;;;;20.76;100.00;100697.40;105625;1258;71487;-45
2023/07/20 04:18:31;;;;;;;16.40;3.10;;;;;;;21.16;100.00;100595.08;105680;1254;60540;-45
2023/07/20 04:20:59;;;;;;;9.80;2.70;;;;;;;21.55;100.00;100415.05;105643;1258;60518;-44
2023/07/20 04:23:27;;;;;;;14.40;3.10;;;;;;;21.86;100.00;100130.16;105646;1254;72653;-45
2023/07/20 04:25:55;;;;;;;8.40;2.70;;;;;;;22.06;100.00;99949.91;105700;1254;63503;-45
2023/07/20 04:28:22;;;;;;;13.60;3.10;;;;;;;22.26;100.00;99880.77;105639;1254;71700;-45
2023/07/20 04:30:51;;;;;;;12.80;4.00;;;;;;;22.45;100.00;99856.65;105655;1254;60536;-45
2023/07/20 04:33:19;;;;;;;6.50;3.70;;;;;;;22.56;100.00;99842.13;105679;1258;60368;-45
2023/07/20 04:35:54;;;;;;;11.10;5.10;;;;;;;22.59;100.00;99846.64;105689;1258;73007;-45
2023/07/20 04:38:28;;;;;;;9.30;5.30;;;;;;;22.62;100.00;99856.61;105682;1257;64485;-45
2023/07/20 04:41:15;;;;;;;12.60;4.50;;;;;;;22.61;100.00;99870.42;105570;1254;72653;-45
2023/07/20 04:43:46;;;;;;;18.50;3.80;;;;;;;22.65;100.00;99886.99;105666;1259;61663;-44
2023/07/20 04:46:19;;;;;;;12.40;3.40;;;;;;;22.78;100.00;99904.29;105710;1259;60367;-45
2023/07/20 04:48:47;;;;;;;15.40;5.60;;;;;;;22.94;100.00;99925.89;105678;1259;73833;-45
2023/07/20 04:51:17;;;;;;;22.70;7.00;;;;;;;23.04;100.00;99933.48;105707;1254;65256;-45
2023/07/20 04:53:45;;;;;;;17.60;7.10;;;;;;;23.04;100.00;99968.02;105683;1259;71382;-46
2023/07/20 04:56:13;;;;;;;17.10;7.40;;;;;;;22.90;100.00;100005.69;105656;1259;60488;-45
2023/07/20 04:58:41;;;;;;;14.80;6.50;;;;;;;22.80;100.00;100022.48;105714;1254;60465;-44
2023/07/20 05:01:09;;;;;;;17.80;7.00;;;;;;;22.81;100.00;100026.62;105657;1254;72640;-45
2023/07/20 05:03:37;;;;;;;17.30;6.40;;;;;;;22.92;100.00;100004.45;105664;1254;63509;-45
2023/07/20 05:06:06;;;;;;;11.50;5.70;;;;;;;23.06;100.00;100010.92;105714;1256;71673;-46
2023/07/20 05:08:34;;;;;;;16.40;5.30;;;;;;;23.23;100.00;100028.45;105610;1254;61092;-45
2023/07/20 05:11:02;;;;;;;19.70;5.00;;;;;;;23.31;100.00;100075.96;105639;1254;60469;-48
2023/07/20 05:13:30;;;;;;;13.40;5.60;;;;;;;23.32;100.00;100090.50;105683;1254;73881;-46
2023/07/20 05:15:58;;;;;;;10.20;4.90;;;;;;;23.48;100.00;100086.40;105679;1254;64320;-45
2023/07/20 05:18:26;;;;;;;13.90;4.80;;;;;;;23.67;100.00;100086.47;105678;1256;71471;-45
2023/07/20 05:20:55;;;;;;;9.00;4.60;;;;;;;23.81;100.00;100092.60;105654;1261;60454;-46
2023/07/20 05:23:22;;;;;;;10.30;4.70;;;;;;;23.81;100.00;100098.73;105738;1259;60485;-45
2023/07/20 05:25:57;;;;;;;16.10;4.90;;;;;;;23.84;100.00;100095.73;105728;1254;73813;-45
2023/07/20 05:28:28;;;;;;;9.10;4.10;;;;;;;23.95;100.00;100074.59;105709;1257;63932;-44
2023/07/20 05:30:55;;;;;;;13.00;3.80;;;;;;;24.19;100.00;100064.77;105663;1254;71803;-44
2023/07/20 05:33:23;;;;;;;7.40;3.70;;;;;;;24.38;100.00;100066.17;105571;1259;60544;-45
2023/07/20 05:35:51;;;;;;;15.70;3.90;;;;;;;24.52;100.00;100065.72;105667;1259;61780;-46
2023/07/20 05:38:19;;;;;;;12.80;4.20;;;;;;;24.50;100.00;100104.35;105678;1259;73925;-45
2023/07/20 05:40:46;;;;;;;11.80;3.30;;;;;;;24.49;100.00;100117.45;105654;1259;64265;-44
2023/07/20 05:43:14;;;;;;;7.90;2.80;;;;;;;24.63;100.00;100127.83;105698;1258;71393;-45
2023/07/20 05:45:44;;;;;;;11.30;3.30;;;;;;;24.90;100.00;100125.21;105644;1257;60575;-45
2023/07/20 05:48:13;;;;;;;15.50;3.60;;;;;;;25.11;100.00;100120.88;105716;1254;60552;-45
2023/07/20 05:50:44;;;;;;;9.30;2.80;;;;;;;25.05;100.00;100141.98;105673;1254;72617;-45
2023/07/20 05:53:12;;;;;;;14.60;3.50;;;;;;;24.97;100.00;100149.91;105703;1254;64493;-46
2023/07/20 05:55:40;;;;;;;16.50;3.40;;;;;;;24.90;100.00;100153.29;105713;1260;72641;-45
2023/07/20 05:58:08;;;;;;;7.10;3.10;;;;;;;24.72;100.00;100165.02;105716;1257;60514;-45
2023/07/20 06:00:36;;;;;;;11.50;2.80;;;;;;;24.63;100.00;100153.08;105658;1258;60364;-46
2023/07/20 06:03:03;;;;;;;13.30;3.20;;;;;;;24.55;100.00;100167.26;105642;1254;72708;-47
2023/07/20 06:05:31;;;;;;;8.50;2.90;;;;;;;24.56;100.00;100164.89;105633;1259;65138;-45
2023/07/20 06:08:00;;;;;;;11.80;2.60;;;;;;;24.63;100.00;100153.19;105690;1254;72613;-45
2023/07/20 06:12:21;;;;;;;17.80;3.70;;;;;;;24.80;100.00;100150.23;102676;1293;600970;-47
2023/07/20 06:14:48;;;;;;;18.40;2.90;;;;;;;25.00;96.95;100144.36;104849;1267;59345;-47
2023/07/20 06:17:16;;;;;;;12.90;2.90;;;;;;;25.17;93.57;100154.39;104840;1269;59312;-45
2023/07/20 06:19:44;;;;;;;14.80;2.90;;;;;;;25.24;87.28;100145.88;104856;1264;71201;-47
2023/07/20 06:22:12;;;;;;;9.50;3.20;;;;;;;25.17;84.84;100154.74;104875;1270;65126;-46
2023/07/20 06:24:39;;;;;;;8.70;3.20;;;;;;;25.06;80.16;100129.35;104873;1267;71446;-45
2023/07/20 06:27:07;;;;;;;6.50;3.20;;;;;;;24.94;80.38;100147.89;104982;1263;205022;-45
2023/07/20 06:29:35;;;;;;;14.70;3.50;;;;;;;24.86;87.36;100178.89;105203;1263;59441;-45
2023/07/20 06:32:03;;;;;;;21.60;3.40;;;;;;;24.91;95.87;100167.35;105126;1264;70969;-43
2023/07/20 06:34:30;;;;;;;15.20;3.70;;;;;;;25.00;87.03;100144.89;105186;1267;64031;-45
2023/07/20 06:36:58;;;;;;;15.40;3.60;;;;;;;25.12;89.80;100155.89;105638;1259;70844;-46
2023/07/20 06:39:26;;;;;;;15.90;3.80;;;;;;;25.36;89.61;100146.47;105623;1253;60015;-46
2023/07/20 06:41:57;;;;;;;23.90;4.00;;;;;;;25.63;81.47;100111.84;105652;1259;59680;-44
2023/07/20 06:44:24;;;;;;;19.00;3.80;;;;;;;25.84;78.41;100108.74;105669;1259;71165;-46
2023/07/20 06:46:52;;;;;;;18.40;3.40;;;;;;;26.01;77.21;100105.66;105656;1254;64315;-46
2023/07/20 06:49:28;;;;;;;40.20;4.70;;;;;;;26.12;75.02;100099.09;105906;1254;71528;-45
2023/07/20 06:51:56;;;;;;;22.30;4.10;;;;;;;26.16;74.92;100116.96;105933;1254;59746;-46
2023/07/20 06:54:24;;;;;;;7.80;3.20;;;;;;;26.14;69.26;100053.98;105960;1256;60187;-48
2023/07/20 06:56:52;;;;;;;13.20;2.70;;;;;;;26.09;69.76;100095.98;105914;1256;71758;-46
2023/07/20 06:59:24;;;;;;;9.80;3.10;;;;;;;26.17;72.05;100140.69;105916;1256;65156;-47
2023/07/20 07:01:52;;;;;;;8.60;2.90;;;;;;;26.31;66.34;100024.33;105922;1253;71365;-46
2023/07/20 07:04:20;;;;;;;11.10;3.10;;;;;;;26.30;66.69;100067.04;105884;1252;59839;-46
2023/07/20 07:06:48;;;;;;;10.90;3.30;;;;;;;26.26;67.08;100085.60;105754;1257;59568;-45
2023/07/20 07:09:15;;;;;;;5.80;2.30;;;;;;;26.23;65.64;100055.71;105651;1257;72229;-46
2023/07/20 07:11:43;;;;;;;15.20;3.30;;;;;;;26.13;63.62;100020.16;105698;1253;64202;-46
2023/07/20 07:14:12;;;;;;;12.60;2.60;;;;;;;26.05;64.27;100056.73;105646;1253;71431;-46
2023/07/20 07:16:39;;;;;;;8.30;3.00;;;;;;;26.09;64.03;100058.46;105688;1253;59637;-45
2023/07/20 07:19:08;;;;;;;11.90;2.80;;;;;;;26.23;67.57;100140.52;105693;1257;59632;-46
2023/07/20 07:21:36;;;;;;;10.10;3.40;;;;;;;26.47;69.86;100167.95;105658;1253;72946;-46
2023/07/20 07:24:03;;;;;;;8.50;2.40;;;;;;;26.67;70.49;100149.02;105654;1253;64362;-45
2023/07/20 07:26:31;;;;;;;6.70;2.80;;;;;;;26.80;63.24;100002.90;105664;1253;71558;-45
2023/07/20 07:28:59;;;;;;;6.20;2.50;;;;;;;26.85;63.23;100029.27;105694;1252;59651;-46
2023/07/20 07:31:26;;;;;;;6.80;2.40;;;;;;;26.99;65.70;100107.33;105675;1257;59683;-45
2023/07/20 07:33:54;;;;;;;6.10;2.50;;;;;;;27.20;65.71;100103.23;105649;1253;73193;-45
2023/07/20 07:36:24;;;;;;;6.50;2.60;;;;;;;27.43;64.64;100079.83;105675;1253;65257;-45
2023/07/20 07:38:52;;;;;;;11.90;2.50;;;;;;;27.65;63.06;100040.02;105691;1253;72659;-47
2023/07/20 07:41:22;;;;;;;18.60;2.90;;;;;;;27.80;62.87;100052.72;105723;1258;60203;-46
2023/07/20 07:43:50;;;;;;;4.60;2.20;;;;;;;27.89;63.27;100081.84;105733;1255;60235;-45
2023/07/20 07:46:18;;;;;;;9.00;2.40;;;;;;;27.90;60.30;99972.40;105687;1253;71774;-45
2023/07/20 07:48:47;;;;;;;5.20;2.20;;;;;;;27.84;58.68;99943.86;105711;1253;63937;-46
2023/07/20 07:51:15;;;;;;;9.30;2.60;;;;;;;27.72;59.66;100000.71;105738;1254;71454;-46
2023/07/20 07:53:43;;;;;;;10.10;2.20;;;;;;;27.72;60.72;100055.66;105750;1253;60080;-46
2023/07/20 07:56:11;;;;;;;16.40;2.10;;;;;;;27.82;61.06;100067.95;105834;1257;59664;-45
2023/07/20 07:58:39;;;;;;;4.80;1.80;;;;;;;27.91;60.01;100039.23;105662;1254;71807;-46
2023/07/20 08:01:07;;;;;;;5.80;2.00;;;;;;;27.96;58.85;99989.26;105639;1258;64000;-46
2023/07/20 08:03:36;;;;;;;7.30;2.10;;;;;;;27.96;60.07;100059.63;105583;1258;71400;-46
2023/07/20 08:06:04;;;;;;;9.00;2.80;;;;;;;27.97;59.81;100053.39;105746;1258;59686;-45
2023/07/20 08:08:32;;;;;;;6.20;3.40;;;;;;;27.98;59.10;100038.73;105631;1253;59661;-46
2023/07/20 08:11:00;;;;;;;6.90;4.30;;;;;;;28.00;60.74;100109.45;105727;1254;71851;-46
2023/07/20 08:13:35;;;;;;;16.90;8.00;;;;;;;28.06;60.79;100105.88;105704;1253;63345;-47
2023/07/20 08:16:03;;;;;;;22.10;9.30;;;;;;;28.15;58.81;100021.86;105636;1253;72590;-47
2023/07/20 08:18:31;;;;;;;17.50;6.40;;;;;;;28.27;59.50;100060.05;105658;1254;60660;-45
2023/07/20 08:20:59;;;;;;;12.80;4.70;;;;;;;28.45;60.02;100079.39;105743;1258;59640;-46
2023/07/20 08:23:27;;;;;;;22.70;4.10;;;;;;;28.52;60.35;100091.98;105643;1253;73050;-47
2023/07/20 08:25:55;;;;;;;17.40;3.40;;;;;;;28.64;62.31;100153.27;105837;1253;64058;-48
2023/07/20 08:28:23;;;;;;;20.00;3.60;;;;;;;28.94;61.31;100105.77;105634;1256;71424;-47
2023/07/20 08:30:51;;;;;;;25.10;4.10;;;;;;;29.20;60.20;100070.05;105703;1254;59823;-47
2023/07/20 08:33:21;;;;;;;26.20;3.60;;;;;;;29.42;60.95;100104.80;105724;1256;59655;-47
2023/07/20 08:35:49;;;;;;;14.00;3.20;;;;;;;29.50;57.87;99972.48;106015;1253;71828;-45
2023/07/20 08:38:17;;;;;;;14.30;3.30;;;;;;;29.40;57.68;99982.74;105549;1255;65211;-47
2023/07/20 08:40:45;;;;;;;25.20;3.00;;;;;;;29.36;58.62;100052.04;105572;1257;71420;-47
2023/07/20 09:09:47;;;;;;;;;;;;;;;29.53;52.91;99837.02;102748;1291;600079;-47
2023/07/20 09:12:18;;;;;;;12.90;2.60;;;;;;;29.36;53.77;99929.01;104870;1272;60026;-46
2023/07/20 09:14:45;;;;;;;9.10;2.50;;;;;;;29.36;53.89;99946.58;104877;1267;59378;-47
2023/07/20 09:17:14;;;;;;;9.00;2.60;;;;;;;29.45;53.49;99911.85;104796;1272;70231;-45
2023/07/20 09:19:48;;;;;;;14.40;2.40;;;;;;;29.68;53.49;99905.48;104973;1266;63924;-47
2023/07/20 09:22:17;;;;;;;17.10;3.70;;;;;;;29.94;52.59;99832.17;104695;1267;212706;-48
2023/07/20 09:24:45;;;;;;;10.30;2.90;;;;;;;30.13;52.03;99807.63;104988;1269;59650;-47
2023/07/20 09:27:12;;;;;;;15.30;3.60;;;;;;;30.32;50.57;99689.01;105131;1268;59911;-48
2023/07/20 09:29:53;;;;;;;22.40;3.40;;;;;;;30.50;50.00;99655.52;105169;1267;70953;-47
2023/07/20 09:32:21;;;;;;;8.20;2.70;;;;;;;30.65;47.90;99446.52;105108;1269;63504;-46
2023/07/20 09:34:52;;;;;;;11.90;2.70;;;;;;;30.69;48.77;99561.05;105141;1267;72722;-47
2023/07/20 09:37:24;;;;;;;10.10;3.30;;;;;;;30.77;48.94;99597.57;105083;1269;60004;-46
2023/07/20 09:39:52;;;;;;;8.10;3.60;;;;;;;30.83;49.27;99644.86;105308;1267;59651;-47
2023/07/20 09:42:25;;;;;;;17.00;3.40;;;;;;;30.95;48.97;99619.66;104871;1264;71229;-48
2023/07/20 09:44:56;;;;;;;8.90;3.00;;;;;;;31.10;49.31;99646.05;104939;1269;63910;-46
2023/07/20 09:47:24;;;;;;;42.00;5.30;;;;;;;31.27;49.54;99678.48;104954;1269;71395;-47
2023/07/20 09:50:01;;;;;;;8.30;3.60;;;;;;;31.42;48.93;99618.21;104873;1266;59666;-44
2023/07/20 09:52:33;;;;;;;12.00;4.10;;;;;;;31.46;48.59;99572.53;105642;1263;59586;-47
2023/07/20 09:55:04;;;;;;;10.70;4.30;;;;;;;31.44;48.97;99637.90;105537;1263;72963;-47
2023/07/20 09:57:33;;;;;;;10.80;4.00;;;;;;;31.48;48.76;99628.57;105602;1262;64004;-48
2023/07/20 10:00:04;;;;;;;13.10;3.90;;;;;;;31.43;47.65;99501.69;105611;1257;71350;-47
2023/07/20 10:02:36;;;;;;;;;;;;;;;31.12;47.83;99555.91;105577;1263;59751;-46
2023/07/20 10:05:08;;;;;;;10.40;4.00;;;;;;;30.79;47.85;99581.33;105593;1257;59568;-47
2023/07/20 10:07:36;;;;;;;14.70;4.10;;;;;;;30.52;48.57;99682.02;105557;1257;71817;-46
2023/07/20 10:10:07;;;;;;;7.70;3.90;;;;;;;30.44;48.55;99687.96;105545;1260;63914;-47
2023/07/20 10:12:35;;;;;;;4.10;3.50;;;;;;;30.29;49.00;99723.11;105578;1257;71371;-47
2023/07/20 10:15:26;;;;;;;12.70;3.70;;;;;;;30.20;49.19;99761.74;105370;1258;59771;-47
2023/07/20 10:17:54;;;;;;;6.60;3.90;;;;;;;29.93;48.97;99748.27;105634;1258;59998;-46
2023/07/20 10:20:22;;;;;;;10.00;4.00;;;;;;;29.73;50.16;99862.89;105591;1258;73454;-46
2023/07/20 10:22:50;;;;;;;7.90;4.10;;;;;;;29.56;51.01;99960.64;105402;1263;63895;-46
2023/07/20 10:25:17;;;;;;;10.70;7.60;;;;;;;29.51;51.47;99987.84;105554;1263;72693;-48
2023/07/20 10:27:47;;;;;;;10.30;5.30;;;;;;;29.54;52.08;100042.93;105569;1257;59749;-46
2023/07/20 10:30:15;;;;;;;14.90;4.90;;;;;;;29.59;53.57;100113.75;105577;1262;59743;-47
2023/07/20 10:32:43;;;;;;;13.20;5.00;;;;;;;29.75;54.09;100106.72;105600;1263;71758;-47
2023/07/20 10:35:15;;;;;;;17.30;4.70;;;;;;;29.92;52.38;99944.02;105582;1257;64327;-48
2023/07/20 10:38:02;;;;;;;22.60;4.60;;;;;;;29.91;51.59;99882.80;105562;1263;72639;-46
2023/07/20 10:40:34;;;;;;;33.10;5.60;;;;;;;29.80;50.42;99785.52;105440;1260;60025;-45
2023/07/20 10:43:08;;;;;;;22.90;4.90;;;;;;;29.61;51.24;99876.42;105550;1263;59656;-47
2023/07/20 10:45:48;;;;;;;20.20;5.30;;;;;;;29.68;50.91;99853.97;105493;1262;73026;-46
2023/07/20 10:48:21;;;;;;;33.70;5.60;;;;;;;29.67;51.17;99870.92;105523;1263;63925;-46
2023/07/20 10:51:15;;;;;;;32.80;6.60;;;;;;;29.54;51.41;99905.36;105607;1258;71354;-47
2023/07/20 10:53:42;;;;;;;37.00;6.60;;;;;;;29.48;52.35;99997.38;105618;1262;60459;-45
2023/07/20 10:56:15;;;;;;;50.60;8.10;;;;;;;29.55;51.39;99900.30;105515;1262;60209;-46
2023/07/20 10:58:43;;;;;;;36.10;6.60;;;;;;;29.60;50.94;99851.10;105531;1258;71607;-47
2023/07/20 11:01:16;;;;;;;44.50;6.00;;;;;;;29.61;52.02;99956.16;105343;1258;65240;-47
2023/07/20 11:03:50;;;;;;;26.00;4.90;;;;;;;29.90;50.96;99855.89;105830;1260;71406;-46
2023/07/20 11:06:25;;;;;;;9.00;3.60;;;;;;;30.13;49.60;99711.83;105598;1257;59758;-45
2023/07/20 11:09:14;;;;;;;21.00;3.60;;;;;;;30.22;50.25;99781.22;105708;1257;60127;-48
2023/07/20 11:11:54;;;;;;;17.00;3.40;;;;;;;30.42;49.19;99685.56;105545;1258;71842;-46
2023/07/20 11:14:23;;;;;;;5.50;2.90;;;;;;;30.56;49.11;99653.89;105471;1263;64031;-48
2023/07/20 11:16:52;;;;;;;19.10;3.50;;;;;;;30.74;49.04;99657.20;105557;1263;72666;-47
2023/07/20 11:19:24;;;;;;;13.50;3.80;;;;;;;30.89;49.41;99692.98;105578;1258;59711;-48
2023/07/20 11:21:56;;;;;;;11.60;3.50;;;;;;;31.02;48.68;99642.33;105549;1261;59633;-47
2023/07/20 11:24:31;;;;;;;10.20;2.80;;;;;;;30.77;48.63;99639.88;105572;1258;71792;-48
2023/07/20 11:26:59;;;;;;;20.40;4.20;;;;;;;30.35;50.87;99878.50;105523;1261;63967;-49
2023/07/20 11:29:27;;;;;;;8.20;3.20;;;;;;;30.35;51.16;99902.88;105575;1264;71391;-50
2023/07/20 11:32:03;;;;;;;6.30;2.90;;;;;;;30.35;49.03;99691.19;105462;1262;59842;-48
2023/07/20 11:34:34;;;;;;;6.40;3.10;;;;;;;30.18;49.11;99689.19;105679;1257;60127;-45
2023/07/20 11:37:02;;;;;;;15.00;3.90;;;;;;;30.01;50.50;99837.92;105538;1263;73004;-48
2023/07/20 11:39:33;;;;;;;14.60;4.20;;;;;;;30.01;50.92;99886.71;105468;1262;65191;-46
2023/07/20 11:42:01;;;;;;;5.90;2.90;;;;;;;30.05;52.67;100019.97;105580;1263;71436;-46
2023/07/20 11:44:29;;;;;;;9.60;3.10;;;;;;;30.21;51.93;99933.24;105515;1258;59769;-47
2023/07/20 11:47:07;;;;;;;9.10;4.00;;;;;;;30.31;52.42;99959.34;105609;1263;59624;-48
2023/07/20 11:49:40;;;;;;;16.60;4.00;;;;;;;30.47;52.42;99945.45;105528;1258;71817;-49
2023/07/20 11:52:10;;;;;;;8.60;3.10;;;;;;;30.63;50.06;99731.56;105518;1258;65609;-46